createdAt,value
2023-01-22T00:01:17.637Z,91.84
2023-01-22T00:03:46.509Z,91.16
2023-01-22T00:06:13.682Z,90.54
2023-01-22T00:08:40.221Z,90.36
2023-01-22T00:11:06.814Z,90.86
2023-01-22T00:13:33.387Z,90.91
2023-01-22T00:16:00.114Z,91.39
2023-01-22T00:18:26.836Z,91.12
2023-01-22T00:20:54.375Z,91.57
2023-01-22T00:23:21.015Z,92.00
2023-01-22T00:25:47.552Z,92.18
2023-01-22T00:28:14.147Z,91.42
2023-01-22T00:30:40.699Z,92.10
2023-01-22T00:33:07.268Z,91.47
2023-01-22T00:35:34.149Z,91.80
2023-01-22T00:38:00.775Z,91.81
2023-01-22T00:40:27.304Z,92.36
2023-01-22T00:42:53.804Z,91.65
2023-01-22T00:45:20.300Z,92.23
2023-01-22T00:47:47.001Z,91.76
2023-01-22T00:50:13.543Z,91.76
2023-01-22T00:52:40.099Z,91.78
2023-01-22T00:55:07.110Z,91.80
2023-01-22T00:57:33.917Z,91.71
2023-01-22T01:00:00.592Z,92.59
2023-01-22T01:02:27.363Z,91.95
2023-01-22T01:04:53.993Z,91.06
2023-01-22T01:07:20.561Z,91.65
2023-01-22T01:09:47.123Z,90.99
2023-01-22T01:12:13.659Z,91.44
2023-01-22T01:14:40.282Z,91.77
2023-01-22T01:17:06.800Z,91.24
2023-01-22T01:19:33.338Z,91.34
2023-01-22T01:22:00.065Z,91.51
2023-01-22T01:24:26.601Z,91.74
2023-01-22T01:26:53.187Z,91.09
2023-01-22T01:29:19.695Z,91.33
2023-01-22T01:31:46.500Z,91.25
2023-01-22T01:34:13.043Z,91.16
2023-01-22T01:36:48.800Z,91.77
2023-01-22T01:39:16.054Z,91.59
2023-01-22T01:41:42.673Z,91.26
2023-01-22T01:44:16.047Z,91.28
2023-01-22T01:46:53.806Z,91.24
2023-01-22T01:49:30.179Z,91.08
2023-01-22T01:52:07.864Z,91.72
2023-01-22T01:54:34.434Z,91.27
2023-01-22T01:57:09.426Z,91.31
2023-01-22T01:59:35.932Z,91.82
2023-01-22T02:02:03.046Z,92.03
2023-01-22T02:04:29.746Z,92.05
2023-01-22T02:06:56.363Z,92.08
2023-01-22T02:09:22.958Z,92.42
2023-01-22T02:11:50.240Z,92.57
2023-01-22T02:14:23.138Z,92.39
2023-01-22T02:17:12.447Z,92.36
2023-01-22T02:19:39.599Z,92.21
2023-01-22T02:22:36.238Z,92.12
2023-01-22T02:25:02.818Z,91.76
2023-01-22T02:27:29.302Z,92.55
2023-01-22T02:29:55.870Z,92.10
2023-01-22T02:32:22.411Z,92.59
2023-01-22T02:34:49.023Z,92.52
2023-01-22T02:37:15.605Z,91.50
2023-01-22T02:39:43.320Z,93.27
2023-01-22T02:42:09.870Z,92.63
2023-01-22T02:44:36.391Z,92.80
2023-01-22T02:47:03.021Z,92.82
2023-01-22T02:49:29.556Z,92.93
2023-01-22T02:51:56.102Z,92.43
2023-01-22T02:54:22.613Z,92.70
2023-01-22T02:56:49.098Z,93.04
2023-01-22T02:59:15.625Z,93.37
2023-01-22T03:01:42.178Z,93.42
2023-01-22T03:04:08.725Z,93.82
2023-01-22T03:06:35.324Z,92.59
2023-01-22T03:09:01.977Z,93.10
2023-01-22T03:11:29.461Z,93.04
2023-01-22T03:13:56.035Z,93.27
2023-01-22T03:16:22.682Z,93.11
2023-01-22T03:18:49.228Z,93.44
2023-01-22T03:21:15.851Z,93.91
2023-01-22T03:23:46.648Z,93.36
2023-01-22T03:26:13.303Z,92.75
2023-01-22T03:28:39.966Z,92.37
2023-01-22T03:31:06.646Z,92.98
2023-01-22T03:33:33.363Z,92.67
2023-01-22T03:36:04.112Z,93.44
2023-01-22T03:38:30.781Z,93.06
2023-01-22T03:41:03.490Z,92.93
2023-01-22T03:43:30.071Z,93.02
2023-01-22T03:46:02.279Z,93.59
2023-01-22T03:48:29.338Z,93.21
2023-01-22T03:50:55.967Z,93.51
2023-01-22T03:53:22.515Z,93.61
2023-01-22T03:55:59.774Z,92.86
2023-01-22T03:58:26.430Z,93.05
2023-01-22T04:00:52.994Z,93.67
2023-01-22T04:03:19.632Z,93.66
2023-01-22T04:05:46.289Z,92.79
2023-01-22T04:08:12.834Z,93.43
2023-01-22T04:10:39.412Z,94.09
2023-01-22T04:13:05.983Z,94.19
2023-01-22T04:15:32.633Z,94.45
2023-01-22T04:17:59.154Z,93.45
2023-01-22T04:20:25.654Z,93.92
2023-01-22T04:22:52.215Z,93.73
2023-01-22T04:25:18.699Z,93.51
2023-01-22T04:27:45.491Z,93.45
2023-01-22T04:30:12.260Z,93.57
2023-01-22T04:32:38.783Z,93.98
2023-01-22T04:35:05.706Z,95.13
2023-01-22T04:37:32.303Z,94.50
2023-01-22T04:39:58.871Z,94.02
2023-01-22T04:42:25.487Z,94.33
2023-01-22T04:44:52.001Z,93.97
2023-01-22T04:47:18.539Z,93.76
2023-01-22T04:49:45.018Z,93.75
2023-01-22T04:52:11.577Z,93.90
2023-01-22T04:54:38.104Z,93.42
2023-01-22T04:57:04.610Z,93.43
2023-01-22T04:59:31.382Z,92.93
2023-01-22T05:01:57.985Z,92.79
2023-01-22T05:04:24.753Z,92.57
2023-01-22T05:06:51.285Z,93.15
2023-01-22T05:09:17.873Z,92.88
2023-01-22T05:11:44.353Z,94.02
2023-01-22T05:14:10.841Z,93.93
2023-01-22T05:16:37.451Z,94.79
2023-01-22T05:19:04.163Z,94.68
2023-01-22T05:21:30.788Z,94.91
2023-01-22T05:23:57.296Z,94.58
2023-01-22T05:26:23.879Z,94.18
2023-01-22T05:28:50.426Z,94.57
2023-01-22T05:31:16.987Z,93.83
2023-01-22T05:33:43.668Z,94.50
2023-01-22T05:36:10.617Z,94.40
2023-01-22T05:38:37.371Z,94.23
2023-01-22T05:41:04.038Z,94.98
2023-01-22T05:43:30.614Z,95.01
2023-01-22T05:46:01.115Z,94.85
2023-01-22T05:48:27.717Z,94.71
2023-01-22T05:50:54.335Z,94.88
2023-01-22T05:53:20.905Z,94.56
2023-01-22T05:55:47.449Z,95.31
2023-01-22T05:58:13.953Z,94.59
2023-01-22T06:00:40.507Z,94.57
2023-01-22T06:03:06.987Z,94.84
2023-01-22T06:05:33.600Z,94.66
2023-01-22T06:08:00.175Z,94.55
2023-01-22T06:10:26.992Z,95.00
2023-01-22T06:12:53.477Z,95.18
2023-01-22T06:15:19.980Z,94.37
2023-01-22T06:17:46.479Z,94.44
2023-01-22T06:20:13.031Z,94.38
2023-01-22T06:22:39.525Z,94.38
2023-01-22T06:25:06.356Z,95.12
2023-01-22T06:27:32.904Z,95.21
2023-01-22T06:29:59.456Z,94.80
2023-01-22T06:32:26.052Z,94.90
2023-01-22T06:34:52.608Z,95.20
2023-01-22T06:37:19.219Z,95.45
2023-01-22T06:39:45.810Z,95.00
2023-01-22T06:42:12.425Z,94.68
2023-01-22T06:44:38.934Z,95.09
2023-01-22T06:47:05.471Z,95.24
2023-01-22T06:49:32.056Z,95.55
2023-01-22T06:51:58.584Z,95.79
2023-01-22T06:54:25.099Z,96.38
2023-01-22T06:56:51.668Z,96.11
2023-01-22T06:59:18.166Z,95.24
2023-01-22T07:01:44.787Z,95.28
2023-01-22T07:04:11.399Z,95.51
2023-01-22T07:06:37.962Z,95.19
2023-01-22T07:09:04.554Z,95.09
2023-01-22T07:11:31.101Z,95.84
2023-01-22T07:13:57.645Z,96.48
2023-01-22T07:16:24.209Z,95.72
2023-01-22T07:18:50.773Z,96.25
2023-01-22T07:21:17.303Z,96.37
2023-01-22T07:23:43.875Z,95.60
2023-01-22T07:26:10.389Z,95.67
2023-01-22T07:28:36.922Z,95.44
2023-01-22T07:31:03.776Z,95.54
2023-01-22T07:33:30.476Z,94.70
2023-01-22T07:35:57.097Z,95.15
2023-01-22T07:38:24.073Z,95.63
2023-01-22T07:40:50.580Z,95.89
2023-01-22T07:43:17.067Z,95.59
2023-01-22T07:45:43.645Z,95.39
2023-01-22T07:48:10.575Z,95.67
2023-01-22T07:50:37.222Z,95.67
2023-01-22T07:53:03.699Z,94.92
2023-01-22T07:55:30.229Z,95.08
2023-01-22T07:58:00.881Z,95.00
2023-01-22T08:00:27.493Z,94.78
2023-01-22T08:02:54.106Z,94.22
2023-01-22T08:05:20.714Z,94.80
2023-01-22T08:07:47.291Z,94.26
2023-01-22T08:10:14.062Z,94.76
2023-01-22T08:12:41.478Z,94.34
2023-01-22T08:15:08.718Z,95.25
2023-01-22T08:17:35.310Z,94.96
2023-01-22T08:20:01.878Z,94.75
2023-01-22T08:22:28.463Z,95.08
2023-01-22T08:24:54.970Z,94.95
2023-01-22T08:27:21.801Z,95.07
2023-01-22T08:29:48.338Z,94.18
2023-01-22T08:32:14.901Z,94.60
2023-01-22T08:34:41.483Z,94.22
2023-01-22T08:37:08.252Z,94.32
2023-01-22T08:39:34.867Z,93.88
2023-01-22T08:42:01.549Z,93.98
2023-01-22T08:44:28.095Z,93.90
2023-01-22T08:46:54.598Z,93.80
2023-01-22T08:49:21.104Z,93.42
2023-01-22T08:51:47.655Z,93.09
2023-01-22T08:54:14.143Z,93.59
2023-01-22T08:56:40.659Z,93.17
2023-01-22T08:59:07.187Z,92.98
2023-01-22T09:01:33.851Z,92.81
2023-01-22T09:04:00.358Z,92.58
2023-01-22T09:06:26.883Z,92.48
2023-01-22T09:08:53.783Z,92.78
2023-01-22T09:11:20.367Z,92.59
2023-01-22T09:13:46.958Z,92.09
2023-01-22T09:16:13.588Z,92.82
2023-01-22T09:18:40.233Z,91.59
2023-01-22T09:21:07.330Z,91.04
2023-01-22T09:23:33.952Z,91.80
2023-01-22T09:26:01.110Z,91.87
2023-01-22T09:28:27.698Z,91.81
2023-01-22T09:30:54.379Z,92.58
2023-01-22T09:33:20.959Z,92.44
2023-01-22T09:35:47.528Z,91.65
2023-01-22T09:38:14.156Z,91.89
2023-01-22T09:40:56.218Z,91.83
2023-01-22T09:43:59.660Z,91.18
2023-01-22T09:46:44.133Z,91.16
2023-01-22T09:49:18.953Z,90.66
2023-01-22T09:51:47.401Z,90.85
2023-01-22T09:54:14.022Z,90.63
2023-01-22T09:56:43.022Z,90.21
2023-01-22T09:59:20.588Z,90.10
2023-01-22T10:01:51.288Z,90.40
2023-01-22T10:04:34.292Z,89.97
2023-01-22T10:07:01.058Z,90.08
2023-01-22T10:09:30.260Z,89.57
2023-01-22T10:11:56.867Z,88.73
2023-01-22T10:14:23.606Z,88.03
2023-01-22T10:16:50.204Z,89.33
2023-01-22T10:19:43.549Z,89.40
2023-01-22T10:22:20.895Z,89.41
2023-01-22T10:24:47.473Z,89.43
2023-01-22T10:27:18.756Z,88.79
2023-01-22T10:30:21.572Z,88.97
2023-01-22T10:33:06.934Z,88.56
2023-01-22T10:35:42.867Z,88.81
2023-01-22T10:38:27.419Z,88.59
2023-01-22T10:41:03.636Z,88.41
2023-01-22T10:43:35.063Z,87.60
2023-01-22T10:46:05.836Z,87.81
2023-01-22T10:48:32.844Z,87.84
2023-01-22T10:51:02.092Z,87.79
2023-01-22T10:53:33.761Z,87.15
2023-01-22T10:56:01.337Z,86.49
2023-01-22T10:58:34.009Z,86.75
2023-01-22T11:01:24.499Z,86.19
2023-01-22T11:03:51.125Z,85.51
2023-01-22T11:06:22.394Z,85.07
2023-01-22T11:08:56.800Z,85.06
2023-01-22T11:11:45.354Z,84.35
2023-01-22T11:14:15.809Z,84.24
2023-01-22T11:16:42.347Z,84.53
2023-01-22T11:19:29.247Z,83.34
2023-01-22T11:22:03.409Z,83.60
2023-01-22T11:24:36.637Z,83.36
2023-01-22T11:27:09.126Z,82.77
2023-01-22T11:29:56.281Z,83.03
2023-01-22T11:32:29.161Z,83.66
2023-01-22T11:35:22.147Z,83.23
2023-01-22T11:38:09.967Z,81.78
2023-01-22T11:40:59.776Z,82.71
2023-01-22T11:43:38.592Z,82.43
2023-01-22T11:46:11.141Z,81.75
2023-01-22T11:49:08.143Z,81.08
2023-01-22T11:51:57.476Z,81.54
2023-01-22T11:54:32.938Z,82.13
2023-01-22T11:57:14.441Z,80.79
2023-01-22T11:59:51.597Z,81.15
2023-01-22T12:02:33.224Z,79.52
2023-01-22T12:05:11.638Z,79.04
2023-01-22T12:07:44.865Z,79.41
2023-01-22T12:10:38.707Z,79.89
2023-01-22T12:13:35.177Z,79.73
2023-01-22T12:16:20.369Z,80.85
2023-01-22T12:19:06.451Z,80.28
2023-01-22T12:21:39.580Z,79.83
2023-01-22T12:24:23.671Z,80.26
2023-01-22T12:27:19.772Z,80.84
2023-01-22T12:29:59.885Z,81.51
2023-01-22T12:32:27.063Z,82.11
2023-01-22T12:35:06.953Z,79.58
2023-01-22T12:37:41.147Z,80.44
2023-01-22T12:40:22.260Z,80.35
2023-01-22T12:43:01.724Z,80.47
2023-01-22T12:45:42.336Z,80.12
2023-01-22T12:48:26.077Z,77.87
2023-01-22T12:50:54.413Z,78.13
2023-01-22T12:53:29.039Z,79.73
2023-01-22T12:56:04.020Z,79.15
2023-01-22T12:58:33.701Z,79.16
2023-01-22T13:01:06.280Z,79.13
2023-01-22T13:03:33.470Z,80.74
2023-01-22T13:06:01.265Z,81.35
2023-01-22T13:08:37.914Z,81.81
2023-01-22T13:11:10.029Z,82.01
2023-01-22T13:13:48.742Z,82.93
2023-01-22T13:16:15.289Z,82.79
2023-01-22T13:18:44.465Z,83.44
2023-01-22T13:21:15.419Z,82.63
2023-01-22T13:23:44.160Z,82.91
2023-01-22T13:26:22.823Z,82.96
2023-01-22T13:28:58.247Z,83.20
2023-01-22T13:31:25.079Z,83.44
2023-01-22T13:34:02.452Z,84.62
2023-01-22T13:36:28.962Z,85.03
2023-01-22T13:38:57.907Z,86.23
2023-01-22T13:41:31.405Z,87.18
2023-01-22T13:43:58.009Z,87.29
2023-01-22T13:46:24.631Z,87.00
2023-01-22T13:49:00.914Z,87.11
2023-01-22T13:51:27.468Z,86.99
2023-01-22T13:53:54.965Z,88.10
2023-01-22T13:56:22.656Z,86.87
2023-01-22T13:58:49.679Z,86.86
2023-01-22T14:01:30.289Z,86.88
2023-01-22T14:04:01.174Z,87.08
2023-01-22T14:06:27.824Z,86.36
2023-01-22T14:08:55.758Z,86.74
2023-01-22T14:11:22.382Z,87.73
2023-01-22T14:13:50.557Z,88.02
2023-01-22T14:16:17.554Z,87.51
2023-01-22T14:18:44.353Z,87.01
2023-01-22T14:21:11.048Z,87.20
2023-01-22T14:23:37.718Z,88.27
2023-01-22T14:26:07.948Z,87.67
2023-01-22T14:28:35.125Z,87.91
2023-01-22T14:31:01.764Z,87.76
2023-01-22T14:33:32.614Z,88.48
2023-01-22T14:35:59.390Z,87.84
2023-01-22T14:38:26.248Z,86.86
2023-01-22T14:40:52.832Z,86.43
2023-01-22T14:43:19.317Z,86.80
2023-01-22T14:45:46.113Z,87.12
2023-01-22T14:48:16.536Z,87.62
2023-01-22T14:50:43.191Z,88.15
2023-01-22T14:53:10.025Z,88.25
2023-01-22T14:55:36.692Z,87.53
2023-01-22T14:58:03.238Z,87.27
2023-01-22T15:00:30.032Z,87.66
2023-01-22T15:02:57.298Z,88.17
2023-01-22T15:05:24.395Z,88.64
2023-01-22T15:07:50.960Z,89.99
2023-01-22T15:10:18.060Z,90.82
2023-01-22T15:12:48.710Z,90.52
2023-01-22T15:15:16.186Z,90.34
2023-01-22T15:17:42.785Z,90.83
2023-01-22T15:20:10.004Z,89.82
2023-01-22T15:22:36.543Z,90.37
2023-01-22T15:25:03.177Z,91.09
2023-01-22T15:27:29.832Z,91.19
2023-01-22T15:29:56.373Z,92.20
2023-01-22T15:32:22.940Z,92.98
2023-01-22T15:34:49.522Z,92.67
2023-01-22T15:37:16.126Z,93.73
2023-01-22T15:39:42.644Z,93.39
2023-01-22T15:42:09.195Z,93.78
2023-01-22T15:44:35.722Z,92.90
2023-01-22T15:47:02.300Z,93.29
2023-01-22T15:49:28.787Z,93.15
2023-01-22T15:51:55.447Z,93.97
2023-01-22T15:54:23.355Z,93.17
2023-01-22T15:56:51.483Z,93.46
2023-01-22T15:59:18.042Z,93.78
2023-01-22T16:01:44.708Z,93.91
2023-01-22T16:04:11.278Z,94.30
2023-01-22T16:06:37.901Z,93.97
2023-01-22T16:09:05.737Z,94.24
2023-01-22T16:11:32.309Z,94.24
2023-01-22T16:13:58.806Z,95.06
2023-01-22T16:16:30.295Z,95.76
2023-01-22T16:18:56.970Z,95.40
2023-01-22T16:21:23.541Z,95.28
2023-01-22T16:23:57.275Z,95.33
2023-01-22T16:26:25.765Z,95.38
2023-01-22T16:28:53.524Z,95.23
2023-01-22T16:31:22.181Z,95.47
2023-01-22T16:33:54.191Z,95.96
2023-01-22T16:36:22.087Z,96.28
2023-01-22T16:38:48.686Z,96.38
2023-01-22T16:41:29.558Z,96.54
2023-01-22T16:43:58.607Z,96.23
2023-01-22T16:46:27.276Z,96.19
2023-01-22T16:48:58.558Z,96.91
2023-01-22T16:51:26.040Z,96.17
2023-01-22T16:53:52.950Z,96.54
2023-01-22T16:56:19.543Z,96.04
2023-01-22T16:58:46.092Z,96.24
2023-01-22T17:01:13.282Z,96.15
2023-01-22T17:03:39.839Z,96.24
2023-01-22T17:06:06.536Z,96.73
2023-01-22T17:08:33.192Z,96.40
2023-01-22T17:10:59.703Z,96.35
2023-01-22T17:13:26.274Z,95.89
2023-01-22T17:15:52.862Z,96.04
2023-01-22T17:18:19.360Z,96.28
2023-01-22T17:21:00.921Z,95.77
2023-01-22T17:23:28.226Z,96.94
2023-01-22T17:25:54.797Z,97.08
2023-01-22T17:28:21.353Z,97.54
2023-01-22T17:30:48.287Z,97.26
2023-01-22T17:33:14.902Z,96.63
2023-01-22T17:35:41.437Z,97.38
2023-01-22T17:38:08.473Z,97.53
2023-01-22T17:40:36.865Z,97.66
2023-01-22T17:43:03.439Z,97.02
2023-01-22T17:45:30.004Z,97.00
2023-01-22T17:47:56.656Z,96.68
2023-01-22T17:50:23.272Z,97.22
2023-01-22T17:52:49.872Z,96.86
2023-01-22T17:55:17.580Z,97.34
2023-01-22T17:57:44.558Z,96.23
2023-01-22T18:00:11.667Z,96.33
2023-01-22T18:02:38.278Z,96.22
2023-01-22T18:05:05.142Z,96.21
2023-01-22T18:07:31.725Z,96.88
2023-01-22T18:09:58.302Z,96.29
2023-01-22T18:12:24.947Z,96.48
2023-01-22T18:14:51.500Z,96.36
2023-01-22T18:17:18.066Z,96.34
2023-01-22T18:19:44.597Z,96.92
2023-01-22T18:22:11.168Z,96.42
2023-01-22T18:24:37.736Z,97.51
2023-01-22T18:27:04.396Z,97.63
2023-01-22T18:29:30.932Z,97.10
2023-01-22T18:31:57.576Z,97.61
2023-01-22T18:34:24.265Z,97.14
2023-01-22T18:36:50.778Z,96.65
2023-01-22T18:39:18.019Z,96.89
2023-01-22T18:41:44.763Z,96.90
2023-01-22T18:44:11.735Z,96.33
2023-01-22T18:46:38.309Z,96.98
2023-01-22T18:49:06.641Z,96.83
2023-01-22T18:51:33.509Z,96.99
2023-01-22T18:54:01.752Z,96.74
2023-01-22T18:56:28.569Z,97.22
2023-01-22T18:58:58.517Z,97.47
2023-01-22T19:01:27.011Z,97.28
2023-01-22T19:03:55.931Z,97.89
2023-01-22T19:06:23.823Z,97.29
2023-01-22T19:08:58.552Z,97.29
2023-01-22T19:11:25.309Z,97.34
2023-01-22T19:13:53.013Z,97.44
2023-01-22T19:16:19.630Z,97.03
2023-01-22T19:18:46.301Z,96.92
2023-01-22T19:21:14.498Z,96.45
2023-01-22T19:23:47.358Z,96.85
2023-01-22T19:26:19.951Z,97.05
2023-01-22T19:28:46.475Z,97.38
2023-01-22T19:31:23.800Z,97.35
2023-01-22T19:33:51.085Z,97.53
2023-01-22T19:36:17.912Z,97.31
2023-01-22T19:38:44.601Z,97.75
2023-01-22T19:41:11.267Z,97.65
2023-01-22T19:43:37.969Z,98.36
2023-01-22T19:46:05.868Z,97.92
2023-01-22T19:48:32.507Z,97.69
2023-01-22T19:51:00.005Z,97.63
2023-01-22T19:53:27.260Z,97.81
2023-01-22T19:55:53.830Z,97.20
2023-01-22T19:58:20.370Z,97.29
2023-01-22T20:00:47.231Z,96.87
2023-01-22T20:03:13.776Z,97.76
2023-01-22T20:05:40.778Z,97.69
2023-01-22T20:08:07.740Z,97.53
2023-01-22T20:10:35.146Z,98.03
2023-01-22T20:13:01.788Z,97.45
2023-01-22T20:15:28.365Z,97.55
2023-01-22T20:17:54.935Z,98.13
2023-01-22T20:20:21.493Z,96.93
2023-01-22T20:22:48.412Z,96.81
2023-01-22T20:25:15.093Z,97.11
2023-01-22T20:27:41.812Z,98.02
2023-01-22T20:30:08.970Z,97.92
2023-01-22T20:32:35.671Z,98.25
2023-01-22T20:35:02.236Z,98.29
2023-01-22T20:37:28.827Z,98.07
2023-01-22T20:39:55.391Z,98.54
2023-01-22T20:42:21.971Z,98.21
2023-01-22T20:44:48.681Z,98.37
2023-01-22T20:47:15.265Z,98.28
2023-01-22T20:49:41.866Z,98.14
2023-01-22T20:52:08.429Z,97.72
2023-01-22T20:54:36.936Z,97.65
2023-01-22T20:57:09.267Z,97.65
2023-01-22T20:59:35.872Z,97.80
2023-01-22T21:02:02.464Z,97.40
2023-01-22T21:04:29.045Z,98.34
2023-01-22T21:06:55.595Z,98.35
2023-01-22T21:09:22.138Z,98.12
2023-01-22T21:11:48.703Z,98.01
2023-01-22T21:14:15.214Z,97.85
2023-01-22T21:16:41.871Z,97.74
2023-01-22T21:19:14.381Z,97.33
2023-01-22T21:21:40.949Z,96.76
2023-01-22T21:24:07.696Z,97.35
2023-01-22T21:26:34.290Z,96.98
2023-01-22T21:29:06.174Z,96.85
2023-01-22T21:31:32.883Z,96.99
2023-01-22T21:34:00.465Z,97.57
2023-01-22T21:36:27.020Z,97.83
2023-01-22T21:38:53.519Z,97.41
2023-01-22T21:41:20.122Z,97.92
2023-01-22T21:43:47.167Z,97.98
2023-01-22T21:46:13.725Z,97.30
2023-01-22T21:48:40.327Z,97.23
2023-01-22T21:51:07.073Z,96.97
2023-01-22T21:53:33.595Z,97.70
2023-01-22T21:56:00.135Z,98.13
2023-01-22T21:58:26.637Z,97.95
2023-01-22T22:00:53.220Z,97.76
2023-01-22T22:03:19.798Z,97.87
2023-01-22T22:05:56.499Z,97.57
2023-01-22T22:08:23.084Z,97.56
2023-01-22T22:10:50.499Z,97.74
2023-01-22T22:13:17.454Z,98.00
2023-01-22T22:15:44.077Z,98.29
2023-01-22T22:18:10.912Z,98.11
2023-01-22T22:20:37.609Z,98.26
2023-01-22T22:23:04.192Z,98.14
2023-01-22T22:25:33.803Z,98.74
2023-01-22T22:28:00.529Z,98.53
2023-01-22T22:30:27.225Z,98.80
2023-01-22T22:32:53.849Z,97.67
2023-01-22T22:35:21.320Z,98.33
2023-01-22T22:37:47.862Z,98.32
2023-01-22T22:40:14.388Z,98.43
2023-01-22T22:42:40.951Z,99.05
2023-01-22T22:45:08.012Z,98.37
2023-01-22T22:47:37.746Z,98.46
2023-01-22T22:50:04.989Z,98.36
2023-01-22T22:52:33.936Z,98.51
2023-01-22T22:55:00.448Z,98.57
2023-01-22T22:57:27.045Z,97.88
2023-01-22T22:59:53.600Z,98.70
2023-01-22T23:02:21.011Z,99.18
2023-01-22T23:04:47.703Z,99.39
2023-01-22T23:07:14.388Z,99.25
2023-01-22T23:09:40.871Z,99.16
2023-01-22T23:12:07.514Z,98.70
2023-01-22T23:14:34.065Z,99.10
2023-01-22T23:17:00.699Z,98.48
2023-01-22T23:19:27.271Z,98.71
2023-01-22T23:21:57.287Z,98.66
2023-01-22T23:24:23.948Z,99.21
2023-01-22T23:26:50.556Z,98.79
2023-01-22T23:29:19.091Z,97.81
2023-01-22T23:31:45.762Z,99.20
2023-01-22T23:34:14.495Z,99.15
2023-01-22T23:36:41.739Z,99.25
2023-01-22T23:39:08.401Z,98.80
2023-01-22T23:41:34.930Z,98.64
2023-01-22T23:44:01.575Z,99.00
2023-01-22T23:46:28.891Z,98.65
2023-01-22T23:48:56.352Z,99.16
2023-01-22T23:51:23.075Z,98.30
2023-01-22T23:53:50.251Z,98.42
2023-01-22T23:56:16.910Z,98.12
2023-01-22T23:58:43.505Z,97.77
